MMPR

Details ICAO MMPR (PVR)
Name LICENCIADO GUSTAVO DIAZ ORDAZ INTL
Region Mexico
Timezone America/Mexico_City (UTC-5.0)
Plans Departing 148
Arriving 198
Stats Elevation 23 ft / 7 m (AMSL)
Location 20.680069° -105.254153°
Runways 1
Magnetic Variation 6.846° E
Sunrise 2018-05-27 12:21:52 UTC / 2018-05-27 07:21:52 Local
Sunset 2018-05-28 01:37:25 UTC / 2018-05-27 20:37:25 Local
Advertisement - Login to hide

Runways

ID Width Length Bearing (true) Bearing (mag) Surface Threshold Offset Overrun Length
04 148 ft / 45 m 10,221 ft / 3,116 m 47.05° 40.20° Asphalt 0 ft / 0 m 185 ft / 56 m
22 148 ft / 45 m 10,221 ft / 3,116 m 227.06° 220.21° Asphalt 0 ft / 0 m 185 ft / 56 m

Map

Weather


0- 5 10 15 20 25 30 35+ Temperature / ° C

Clouds and Precipitation
Forecast for 2018-05-27 12:00 UTC. Updated 5 hours ago

Ground ~20,000 ft ~40,000 ft Winds

METAR

MMPR 271547Z 29004KT 12SM SKC 29/22 A2981 RMK CU

TAF

Not found

Frequencies

Recorded 127.50 MHz VALLARTA ATIS
Approach 121.30 MHz VALLARTA APP
Tower 118.50 MHz VALLARTA TWR
Approach 119.00 MHz VALLARTA APP
Warning: Do not use this data for real-world aviation or navigation. No guarantee of current accuracy is given.